createdAt,value
2023-03-12T00:01:34.538Z,1.66
2023-03-12T00:06:39.475Z,1.09
2023-03-12T00:11:42.958Z,-1.47
2023-03-12T00:16:46.349Z,0.99
2023-03-12T00:21:51.181Z,1.46
2023-03-12T00:26:54.636Z,0.82
2023-03-12T00:31:58.207Z,1.34
2023-03-12T00:37:03.055Z,1.56
2023-03-12T00:42:07.351Z,1.53
2023-03-12T00:47:11.309Z,0.97
2023-03-12T00:52:16.095Z,1.35
2023-03-12T00:57:19.802Z,1.40
2023-03-12T01:02:23.504Z,1.49
2023-03-12T01:07:28.433Z,1.49
2023-03-12T01:12:31.941Z,1.41
2023-03-12T01:17:35.454Z,1.34
2023-03-12T01:22:40.529Z,1.31
2023-03-12T01:27:44.051Z,0.51
2023-03-12T01:32:47.607Z,0.21
2023-03-12T01:37:53.175Z,1.22
2023-03-12T01:42:58.406Z,0.74
2023-03-12T01:48:02.290Z,1.16
2023-03-12T01:53:07.436Z,0.81
2023-03-12T01:58:11.268Z,0.81
2023-03-12T02:03:16.335Z,1.07
2023-03-12T02:08:22.993Z,0.05
2023-03-12T02:13:28.069Z,0.23
2023-03-12T02:18:32.138Z,0.78
2023-03-12T02:23:44.533Z,1.05
2023-03-12T02:28:50.575Z,1.03
2023-03-12T02:33:56.026Z,0.53
2023-03-12T02:38:59.524Z,1.30
2023-03-12T02:44:06.955Z,-0.73
2023-03-12T02:49:13.675Z,0.63
2023-03-12T02:54:19.989Z,0.99
2023-03-12T02:59:26.689Z,1.26
2023-03-12T03:04:34.784Z,0.98
2023-03-12T03:09:38.393Z,0.56
2023-03-12T03:14:43.256Z,0.22
2023-03-12T03:19:47.964Z,0.89
2023-03-12T03:24:51.630Z,1.06
2023-03-12T03:29:56.585Z,0.69
2023-03-12T03:40:53.198Z,0.30
2023-03-12T03:46:03.355Z,0.85
2023-03-12T03:51:12.166Z,0.01
2023-03-12T03:56:19.918Z,0.48
2023-03-12T04:01:27.637Z,1.00
2023-03-12T04:06:33.028Z,-0.64
2023-03-12T04:11:36.817Z,0.64
2023-03-12T04:16:43.666Z,-1.54
2023-03-12T04:21:48.208Z,0.80
2023-03-12T04:26:51.996Z,-0.53
2023-03-12T04:31:57.113Z,-0.75
2023-03-12T04:37:01.897Z,1.58
2023-03-12T04:42:06.117Z,1.27
2023-03-12T04:47:15.772Z,1.51
2023-03-12T04:52:19.385Z,1.70
2023-03-12T04:57:23.012Z,1.50
2023-03-12T05:02:27.917Z,1.48
2023-03-12T05:07:31.799Z,0.41
2023-03-12T05:12:36.132Z,0.58
2023-03-12T05:17:41.110Z,0.46
2023-03-12T05:22:45.426Z,1.30
2023-03-12T05:27:57.699Z,2.09
2023-03-12T05:33:03.264Z,0.23
2023-03-12T05:38:08.204Z,2.10
2023-03-12T05:43:12.107Z,1.76
2023-03-12T05:48:17.349Z,1.62
2023-03-12T05:53:20.820Z,1.90
2023-03-12T05:58:24.410Z,1.89
2023-03-12T06:03:29.617Z,1.77
2023-03-12T06:08:33.472Z,2.30
2023-03-12T06:13:37.129Z,2.09
2023-03-12T06:18:42.032Z,2.26
2023-03-12T06:23:46.395Z,1.67
2023-03-12T06:29:00.649Z,2.26
2023-03-12T06:34:30.581Z,2.07
2023-03-12T06:39:34.621Z,0.56
2023-03-12T06:44:38.039Z,1.74
2023-03-12T06:49:42.899Z,2.38
2023-03-12T06:54:46.417Z,2.65
2023-03-12T06:59:50.692Z,2.29
2023-03-12T07:04:55.704Z,2.79
2023-03-12T07:09:59.170Z,2.23
2023-03-12T07:15:02.707Z,1.98
2023-03-12T07:20:08.634Z,2.74
2023-03-12T07:25:12.484Z,2.43
2023-03-12T07:30:16.362Z,3.09
2023-03-12T07:35:21.288Z,0.77
2023-03-12T07:40:24.899Z,3.22
2023-03-12T07:45:28.519Z,2.84
2023-03-12T07:50:33.821Z,3.36
2023-03-12T07:55:37.256Z,3.32
2023-03-12T08:00:41.102Z,2.70
2023-03-12T08:05:45.965Z,3.57
2023-03-12T08:10:50.102Z,1.69
2023-03-12T08:15:54.724Z,2.18
2023-03-12T08:20:59.692Z,3.03
2023-03-12T08:26:03.287Z,3.46
2023-03-12T08:31:07.285Z,2.45
2023-03-12T08:36:12.197Z,3.93
2023-03-12T08:41:15.684Z,4.00
2023-03-12T08:46:19.365Z,4.13
2023-03-12T08:51:24.290Z,4.29
2023-03-12T08:56:27.861Z,4.29
2023-03-12T09:01:31.625Z,4.56
2023-03-12T09:06:38.750Z,4.70
2023-03-12T09:11:42.618Z,4.81
2023-03-12T09:16:46.171Z,4.58
2023-03-12T09:21:51.432Z,5.01
2023-03-12T09:26:54.953Z,5.07
2023-03-12T09:31:59.502Z,5.16
2023-03-12T09:37:04.480Z,5.30
2023-03-12T09:42:17.616Z,5.24
2023-03-12T09:47:28.020Z,5.45
2023-03-12T09:52:40.867Z,5.71
2023-03-12T09:57:45.238Z,5.19
2023-03-12T10:03:00.011Z,6.03
2023-03-12T10:08:23.985Z,5.78
2023-03-12T10:13:52.186Z,6.41
2023-03-12T10:19:39.279Z,6.20
2023-03-12T10:24:57.495Z,6.45
2023-03-12T10:30:02.458Z,6.72
2023-03-12T10:35:15.834Z,7.03
2023-03-12T10:40:24.216Z,7.15
2023-03-12T10:45:33.019Z,7.36
2023-03-12T10:50:38.556Z,7.24
2023-03-12T10:55:43.687Z,7.24
2023-03-12T11:00:57.196Z,7.87
2023-03-12T11:06:02.543Z,7.99
2023-03-12T11:11:07.548Z,7.88
2023-03-12T11:16:31.410Z,8.12
2023-03-12T11:21:38.232Z,7.88
2023-03-12T11:26:51.059Z,9.11
2023-03-12T11:32:03.094Z,9.45
2023-03-12T11:37:13.090Z,9.06
2023-03-12T11:42:29.525Z,10.02
2023-03-12T11:47:50.214Z,10.22
2023-03-12T11:53:18.141Z,10.19
2023-03-12T11:58:34.256Z,8.35
2023-03-12T12:04:28.553Z,10.41
2023-03-12T12:09:40.066Z,10.00
2023-03-12T12:14:59.115Z,10.91
2023-03-12T12:20:17.506Z,10.93
2023-03-12T12:25:30.188Z,10.71
2023-03-12T12:30:48.399Z,11.14
2023-03-12T12:35:52.430Z,11.35
2023-03-12T12:41:01.393Z,11.16
2023-03-12T12:46:10.201Z,11.35
2023-03-12T12:51:14.193Z,11.31
2023-03-12T12:56:23.330Z,11.32
2023-03-12T13:01:28.958Z,11.77
2023-03-12T13:06:54.904Z,11.90
2023-03-12T13:11:58.365Z,11.86
2023-03-12T13:17:34.887Z,11.87
2023-03-12T13:23:03.063Z,11.94
2023-03-12T13:28:32.795Z,12.30
2023-03-12T13:33:46.341Z,12.53
2023-03-12T13:38:56.321Z,12.71
2023-03-12T13:44:00.135Z,12.66
2023-03-12T13:49:12.234Z,12.61
2023-03-12T13:54:19.789Z,12.64
2023-03-12T13:59:25.932Z,12.14
2023-03-12T14:04:36.135Z,12.13
2023-03-12T14:09:44.364Z,12.20
2023-03-12T14:15:02.714Z,12.12
2023-03-12T14:20:15.964Z,12.08
2023-03-12T14:25:31.662Z,12.03
2023-03-12T14:30:45.831Z,11.85
2023-03-12T14:35:54.745Z,12.30
2023-03-12T14:41:03.193Z,12.29
2023-03-12T14:46:15.286Z,12.44
2023-03-12T14:51:24.468Z,12.57
2023-03-12T14:56:32.539Z,12.82
2023-03-12T15:01:40.625Z,12.85
2023-03-12T15:06:48.287Z,12.90
2023-03-12T15:11:55.434Z,13.32
2023-03-12T15:17:00.521Z,13.41
2023-03-12T15:22:06.496Z,12.34
2023-03-12T15:27:21.329Z,13.53
2023-03-12T15:32:26.020Z,12.74
2023-03-12T15:37:40.540Z,12.55
2023-03-12T15:42:47.887Z,13.30
2023-03-12T15:47:54.618Z,12.69
2023-03-12T15:53:05.961Z,12.54
2023-03-12T15:58:25.752Z,13.33
2023-03-12T16:03:30.804Z,12.01
2023-03-12T16:08:42.124Z,13.23
2023-03-12T16:13:46.801Z,12.77
2023-03-12T16:18:50.217Z,12.92
2023-03-12T16:23:55.154Z,13.11
2023-03-12T16:28:59.705Z,12.73
2023-03-12T16:34:03.231Z,12.89
2023-03-12T16:39:07.997Z,12.92
2023-03-12T16:44:19.604Z,13.00
2023-03-12T16:49:23.391Z,12.80
2023-03-12T16:54:28.267Z,12.71
2023-03-12T16:59:33.276Z,12.69
2023-03-12T17:04:36.825Z,12.84
2023-03-12T17:09:42.045Z,12.82
2023-03-12T17:14:45.586Z,12.07
2023-03-12T17:19:49.072Z,12.58
2023-03-12T17:24:54.014Z,12.61
2023-03-12T17:29:57.481Z,12.25
2023-03-12T17:35:03.244Z,12.12
2023-03-12T17:40:11.098Z,12.59
2023-03-12T17:45:14.871Z,12.35
2023-03-12T17:50:18.617Z,12.22
2023-03-12T17:55:23.484Z,12.14
2023-03-12T18:00:27.133Z,12.20
2023-03-12T18:05:31.199Z,11.91
2023-03-12T18:10:39.040Z,9.98
2023-03-12T18:15:42.682Z,11.91
2023-03-12T18:20:46.279Z,12.12
2023-03-12T18:25:51.099Z,12.38
2023-03-12T18:30:54.836Z,12.25
2023-03-12T18:35:58.428Z,12.10
2023-03-12T18:41:07.709Z,12.31
2023-03-12T18:46:13.007Z,11.85
2023-03-12T18:51:16.548Z,12.09
2023-03-12T18:56:24.749Z,11.57
2023-03-12T19:01:28.346Z,11.57
2023-03-12T19:06:47.823Z,10.37
2023-03-12T19:11:55.057Z,11.97
2023-03-12T19:16:58.927Z,11.79
2023-03-12T19:22:02.390Z,11.94
2023-03-12T19:27:07.343Z,11.41
2023-03-12T19:32:10.801Z,10.91
2023-03-12T19:37:14.328Z,11.37
2023-03-12T19:42:19.240Z,11.85
2023-03-12T19:47:22.738Z,11.32
2023-03-12T19:52:26.319Z,11.03
2023-03-12T19:57:31.587Z,11.82
2023-03-12T20:02:35.248Z,11.30
2023-03-12T20:07:38.795Z,11.51
2023-03-12T20:12:43.695Z,11.74
2023-03-12T20:17:47.574Z,11.28
2023-03-12T20:22:52.264Z,11.69
2023-03-12T20:27:58.048Z,11.68
2023-03-12T20:33:01.664Z,11.43
2023-03-12T20:38:05.352Z,11.46
2023-03-12T20:43:10.269Z,11.55
2023-03-12T20:48:13.769Z,11.50
2023-03-12T20:53:17.369Z,11.31
2023-03-12T20:58:23.028Z,10.74
2023-03-12T21:03:26.512Z,11.32
2023-03-12T21:08:30.954Z,11.19
2023-03-12T21:13:37.304Z,11.42
2023-03-12T21:18:40.793Z,11.34
2023-03-12T21:23:44.506Z,11.16
2023-03-12T21:28:49.375Z,10.86
2023-03-12T21:33:55.878Z,11.36
2023-03-12T21:39:02.432Z,10.70
2023-03-12T21:44:07.400Z,10.91
2023-03-12T21:49:11.023Z,10.95
2023-03-12T21:54:14.614Z,10.91
2023-03-12T21:59:19.507Z,10.98
2023-03-12T22:04:23.612Z,11.07
2023-03-12T22:09:27.380Z,10.75
2023-03-12T22:14:38.435Z,11.19
2023-03-12T22:19:42.162Z,10.62
2023-03-12T22:24:45.615Z,10.66
2023-03-12T22:29:52.945Z,10.80
2023-03-12T22:34:56.360Z,10.72
2023-03-12T22:40:01.513Z,10.65
2023-03-12T22:45:07.921Z,10.55
2023-03-12T22:50:12.703Z,10.52
2023-03-12T22:55:16.383Z,10.27
2023-03-12T23:00:49.283Z,10.29
2023-03-12T23:05:52.625Z,10.00
2023-03-12T23:10:57.729Z,10.18
2023-03-12T23:16:04.394Z,10.20
2023-03-12T23:21:09.605Z,10.14
2023-03-12T23:26:18.985Z,8.10
2023-03-12T23:31:23.916Z,8.87
2023-03-12T23:36:27.634Z,9.66
2023-03-12T23:41:31.200Z,10.04
2023-03-12T23:46:36.194Z,9.81
2023-03-12T23:51:41.025Z,10.03
2023-03-12T23:56:44.479Z,9.77
